createdAt,value
2022-09-28T00:00:10.775Z,0.00
2022-09-28T00:01:10.764Z,0.00
2022-09-28T00:02:11.544Z,0.00
2022-09-28T00:03:11.462Z,0.00
2022-09-28T00:04:10.844Z,0.00
2022-09-28T00:05:12.313Z,0.00
2022-09-28T00:06:10.765Z,0.00
2022-09-28T00:07:11.386Z,0.00
2022-09-28T00:08:11.747Z,0.00
2022-09-28T00:09:10.767Z,0.00
2022-09-28T00:10:10.747Z,0.00
2022-09-28T00:11:10.868Z,0.00
2022-09-28T00:12:11.588Z,0.00
2022-09-28T00:13:10.661Z,0.00
2022-09-28T00:14:10.670Z,0.00
2022-09-28T00:15:10.690Z,0.00
2022-09-28T00:16:10.734Z,0.00
2022-09-28T00:17:10.622Z,0.00
2022-09-28T00:18:10.698Z,0.00
2022-09-28T00:19:11.000Z,0.00
2022-09-28T00:20:11.523Z,0.00
2022-09-28T00:21:11.236Z,0.00
2022-09-28T00:22:11.227Z,0.00
2022-09-28T00:23:10.565Z,0.00
2022-09-28T00:24:11.202Z,0.00
2022-09-28T00:25:11.196Z,0.00
2022-09-28T00:26:11.939Z,0.00
2022-09-28T00:27:10.510Z,0.00
2022-09-28T00:28:10.672Z,0.00
2022-09-28T00:29:10.504Z,0.00
2022-09-28T00:30:11.134Z,0.00
2022-09-28T00:31:11.185Z,0.00
2022-09-28T00:32:10.597Z,0.00
2022-09-28T00:33:10.493Z,0.00
2022-09-28T00:34:10.492Z,0.00
2022-09-28T00:35:11.086Z,0.00
2022-09-28T00:36:11.078Z,0.00
2022-09-28T00:37:10.386Z,0.00
2022-09-28T00:38:10.558Z,0.00
2022-09-28T00:39:10.353Z,0.00
2022-09-28T00:40:11.035Z,0.00
2022-09-28T00:41:10.333Z,0.00
2022-09-28T00:42:11.003Z,0.00
2022-09-28T00:43:10.438Z,0.00
2022-09-28T00:44:10.444Z,0.00
2022-09-28T00:45:10.367Z,0.00
2022-09-28T00:46:10.386Z,0.00
2022-09-28T00:47:10.953Z,0.00
2022-09-28T00:48:10.966Z,0.00
2022-09-28T00:49:10.303Z,0.00
2022-09-28T00:50:10.435Z,0.00
2022-09-28T00:51:10.241Z,0.00
2022-09-28T00:52:10.258Z,0.00
2022-09-28T00:53:10.276Z,0.00
2022-09-28T00:54:10.875Z,0.00
2022-09-28T00:55:10.264Z,0.00
2022-09-28T00:56:10.209Z,0.00
2022-09-28T00:57:10.250Z,0.00
2022-09-28T00:58:10.192Z,0.00
2022-09-28T00:59:10.223Z,0.00
2022-09-28T01:00:10.816Z,0.00
2022-09-28T01:01:10.202Z,0.00
2022-09-28T01:02:10.218Z,0.00
2022-09-28T01:03:10.803Z,0.00
2022-09-28T01:04:10.148Z,0.00
2022-09-28T01:05:10.102Z,0.00
2022-09-28T01:06:10.229Z,0.00
2022-09-28T01:07:10.740Z,0.00
2022-09-28T01:08:10.718Z,0.00
2022-09-28T01:09:10.485Z,0.00
2022-09-28T01:10:10.024Z,0.00
2022-09-28T01:11:10.692Z,0.00
2022-09-28T01:12:10.011Z,0.00
2022-09-28T01:13:10.067Z,0.00
2022-09-28T01:14:10.081Z,0.00
2022-09-28T01:15:10.014Z,0.00
2022-09-28T01:16:10.054Z,0.00
2022-09-28T01:17:10.075Z,0.00
2022-09-28T01:18:09.940Z,0.00
2022-09-28T01:19:10.600Z,0.00
2022-09-28T01:20:11.881Z,0.00
2022-09-28T01:21:10.281Z,0.00
2022-09-28T01:22:10.579Z,0.00
2022-09-28T01:23:10.563Z,0.00
2022-09-28T01:24:10.551Z,0.00
2022-09-28T01:25:10.542Z,0.00
2022-09-28T01:26:09.942Z,0.00
2022-09-28T01:27:09.862Z,0.00
2022-09-28T01:28:09.934Z,0.00
2022-09-28T01:29:10.135Z,0.00
2022-09-28T01:30:09.856Z,0.00
2022-09-28T01:31:10.115Z,0.00
2022-09-28T01:32:10.453Z,0.00
2022-09-28T01:33:11.233Z,0.00
2022-09-28T01:34:09.808Z,0.00
2022-09-28T01:35:09.824Z,0.00
2022-09-28T01:36:10.416Z,0.00
2022-09-28T01:37:10.728Z,0.00
2022-09-28T01:38:09.891Z,0.00
2022-09-28T01:39:10.422Z,0.00
2022-09-28T01:40:10.387Z,0.00
2022-09-28T01:41:09.836Z,0.00
2022-09-28T01:42:10.355Z,0.00
2022-09-28T01:43:09.741Z,0.00
2022-09-28T01:44:09.996Z,0.00
2022-09-28T01:45:10.325Z,0.00
2022-09-28T01:46:09.759Z,0.00
2022-09-28T01:47:10.297Z,0.00
2022-09-28T01:48:10.288Z,0.00
2022-09-28T01:49:11.081Z,0.00
2022-09-28T01:50:09.657Z,0.00
2022-09-28T01:51:09.600Z,0.00
2022-09-28T01:52:10.280Z,0.00
2022-09-28T01:53:10.237Z,0.00
2022-09-28T01:54:10.218Z,0.00
2022-09-28T01:55:10.209Z,0.00
2022-09-28T01:56:09.689Z,0.00
2022-09-28T01:57:09.606Z,0.00
2022-09-28T01:58:10.187Z,0.00
2022-09-28T01:59:10.230Z,0.00
2022-09-28T02:00:09.490Z,0.00
2022-09-28T02:01:10.286Z,0.00
2022-09-28T02:02:09.599Z,0.00
2022-09-28T02:03:09.439Z,0.00
2022-09-28T02:04:09.471Z,0.00
2022-09-28T02:05:10.116Z,0.00
2022-09-28T02:06:10.107Z,0.00
2022-09-28T02:07:10.080Z,0.00
2022-09-28T02:08:10.167Z,0.00
2022-09-28T02:09:09.372Z,0.00
2022-09-28T02:10:10.052Z,0.00
2022-09-28T02:11:09.834Z,0.00
2022-09-28T02:12:10.792Z,0.00
2022-09-28T02:13:09.374Z,0.00
2022-09-28T02:14:09.996Z,0.00
2022-09-28T02:15:09.993Z,0.00
2022-09-28T02:16:09.416Z,0.00
2022-09-28T02:17:09.314Z,0.00
2022-09-28T02:18:09.954Z,0.00
2022-09-28T02:19:09.989Z,0.00
2022-09-28T02:20:09.935Z,0.00
2022-09-28T02:21:09.934Z,0.00
2022-09-28T02:22:09.234Z,0.00
2022-09-28T02:23:10.176Z,0.00
2022-09-28T02:24:09.215Z,0.00
2022-09-28T02:25:09.878Z,0.00
2022-09-28T02:26:09.242Z,0.00
2022-09-28T02:27:09.867Z,0.00
2022-09-28T02:28:09.178Z,0.00
2022-09-28T02:29:09.839Z,0.00
2022-09-28T02:30:09.829Z,0.00
2022-09-28T02:31:09.867Z,0.00
2022-09-28T02:32:10.137Z,0.00
2022-09-28T02:33:09.119Z,0.00
2022-09-28T02:34:09.307Z,0.00
2022-09-28T02:35:09.095Z,0.00
2022-09-28T02:36:09.768Z,0.00
2022-09-28T02:37:09.761Z,0.00
2022-09-28T02:38:09.726Z,0.00
2022-09-28T02:39:09.058Z,0.00
2022-09-28T02:40:09.719Z,0.00
2022-09-28T02:41:09.720Z,0.00
2022-09-28T02:42:09.699Z,0.00
2022-09-28T02:43:09.009Z,0.00
2022-09-28T02:44:09.670Z,0.00
2022-09-28T02:45:09.667Z,0.00
2022-09-28T02:46:09.030Z,0.00
2022-09-28T02:47:08.979Z,0.00
2022-09-28T02:48:09.643Z,0.00
2022-09-28T02:49:21.451Z,0.00
2022-09-28T02:50:11.383Z,0.00
2022-09-28T02:51:08.929Z,0.00
2022-09-28T02:52:08.919Z,0.00
2022-09-28T02:53:09.583Z,0.00
2022-09-28T02:54:09.572Z,0.00
2022-09-28T02:55:09.242Z,0.00
2022-09-28T02:56:09.822Z,0.00
2022-09-28T02:57:08.887Z,0.00
2022-09-28T02:58:09.524Z,0.00
2022-09-28T02:59:09.521Z,0.00
2022-09-28T03:00:09.511Z,0.00
2022-09-28T03:01:09.677Z,0.00
2022-09-28T03:02:08.854Z,0.00
2022-09-28T03:03:09.765Z,0.00
2022-09-28T03:04:08.783Z,0.00
2022-09-28T03:05:08.793Z,0.00
2022-09-28T03:06:08.793Z,0.00
2022-09-28T03:07:09.445Z,0.00
2022-09-28T03:08:08.752Z,0.00
2022-09-28T03:09:09.416Z,0.00
2022-09-28T03:10:09.394Z,0.00
2022-09-28T03:11:09.399Z,0.00
2022-09-28T03:12:09.386Z,0.00
2022-09-28T03:13:08.753Z,0.00
2022-09-28T03:14:09.353Z,0.00
2022-09-28T03:15:09.735Z,0.00
2022-09-28T03:16:09.370Z,0.00
2022-09-28T03:17:08.660Z,0.00
2022-09-28T03:18:10.598Z,0.00
2022-09-28T03:19:08.656Z,0.00
2022-09-28T03:20:08.631Z,0.00
2022-09-28T03:21:09.277Z,0.00
2022-09-28T03:22:09.268Z,0.00
2022-09-28T03:23:25.327Z,0.00
2022-09-28T03:24:10.558Z,0.00
2022-09-28T03:25:08.558Z,0.00
2022-09-28T03:26:09.227Z,0.00
2022-09-28T03:27:08.558Z,0.00
2022-09-28T03:28:09.208Z,0.00
2022-09-28T03:29:09.198Z,0.00
2022-09-28T03:30:09.189Z,0.00
2022-09-28T03:31:08.565Z,0.00
2022-09-28T03:32:08.499Z,0.00
2022-09-28T03:33:09.161Z,0.00
2022-09-28T03:34:09.140Z,0.00
2022-09-28T03:35:08.440Z,0.00
2022-09-28T03:36:09.910Z,0.00
2022-09-28T03:37:09.121Z,0.00
2022-09-28T03:38:08.432Z,0.00
2022-09-28T03:39:09.352Z,0.00
2022-09-28T03:40:09.081Z,0.00
2022-09-28T03:41:09.070Z,0.00
2022-09-28T03:42:09.042Z,0.00
2022-09-28T03:43:08.375Z,0.00
2022-09-28T03:44:08.349Z,0.00
2022-09-28T03:45:09.030Z,0.00
2022-09-28T03:46:09.332Z,0.00
2022-09-28T03:47:08.324Z,0.00
2022-09-28T03:48:08.350Z,0.00
2022-09-28T03:49:08.292Z,0.00
2022-09-28T03:50:08.314Z,0.00
2022-09-28T03:51:08.961Z,0.00
2022-09-28T03:52:08.951Z,0.00
2022-09-28T03:53:09.694Z,0.00
2022-09-28T03:54:08.924Z,0.00
2022-09-28T03:55:08.303Z,0.00
2022-09-28T03:56:08.213Z,0.00
2022-09-28T03:57:08.902Z,0.00
2022-09-28T03:58:09.014Z,0.00
2022-09-28T03:59:09.225Z,0.00
2022-09-28T04:00:08.225Z,0.00
2022-09-28T04:01:10.769Z,0.00
2022-09-28T04:02:09.045Z,0.00
2022-09-28T04:03:08.143Z,0.00
2022-09-28T04:04:08.828Z,0.00
2022-09-28T04:05:08.148Z,0.00
2022-09-28T04:06:08.140Z,0.00
2022-09-28T04:07:08.798Z,0.00
2022-09-28T04:08:09.048Z,0.00
2022-09-28T04:09:08.077Z,0.00
2022-09-28T04:10:08.075Z,0.00
2022-09-28T04:11:08.759Z,0.00
2022-09-28T04:12:08.058Z,0.00
2022-09-28T04:13:08.977Z,0.00
2022-09-28T04:14:09.468Z,0.00
2022-09-28T04:15:08.688Z,0.00
2022-09-28T04:16:09.521Z,0.00
2022-09-28T04:17:08.661Z,0.00
2022-09-28T04:18:07.992Z,0.00
2022-09-28T04:19:08.669Z,0.00
2022-09-28T04:20:08.649Z,0.00
2022-09-28T04:21:07.948Z,0.00
2022-09-28T04:22:08.630Z,0.00
2022-09-28T04:23:09.499Z,0.00
2022-09-28T04:24:08.864Z,0.00
2022-09-28T04:25:08.589Z,0.00
2022-09-28T04:26:08.579Z,0.00
2022-09-28T04:27:07.888Z,0.00
2022-09-28T04:28:07.869Z,0.00
2022-09-28T04:29:08.552Z,0.00
2022-09-28T04:30:09.302Z,0.00
2022-09-28T04:31:08.531Z,0.00
2022-09-28T04:32:08.530Z,0.00
2022-09-28T04:33:08.510Z,0.00
2022-09-28T04:34:07.814Z,0.00
2022-09-28T04:35:08.472Z,0.00
2022-09-28T04:36:07.790Z,0.00
2022-09-28T04:37:08.466Z,0.00
2022-09-28T04:38:07.770Z,0.00
2022-09-28T04:39:07.773Z,0.00
2022-09-28T04:40:07.742Z,0.00
2022-09-28T04:41:09.212Z,0.00
2022-09-28T04:42:08.420Z,0.00
2022-09-28T04:43:08.417Z,0.00
2022-09-28T04:44:08.405Z,0.00
2022-09-28T04:45:08.382Z,0.00
2022-09-28T04:46:07.777Z,0.00
2022-09-28T04:47:08.356Z,0.00
2022-09-28T04:48:07.692Z,0.00
2022-09-28T04:49:07.657Z,0.00
2022-09-28T04:50:08.326Z,0.00
2022-09-28T04:51:08.324Z,0.00
2022-09-28T04:52:07.606Z,0.00
2022-09-28T04:53:08.293Z,0.00
2022-09-28T04:54:09.085Z,0.00
2022-09-28T04:55:08.274Z,0.00
2022-09-28T04:56:08.257Z,0.00
2022-09-28T04:57:07.566Z,0.00
2022-09-28T04:58:07.557Z,0.00
2022-09-28T04:59:07.558Z,0.00
2022-09-28T05:00:08.216Z,0.00
2022-09-28T05:01:08.309Z,0.00
2022-09-28T05:02:07.594Z,0.00
2022-09-28T05:03:08.189Z,0.00
2022-09-28T05:04:08.180Z,0.00
2022-09-28T05:05:07.507Z,0.00
2022-09-28T05:06:07.466Z,4.00
2022-09-28T05:07:07.460Z,0.00
2022-09-28T05:08:08.359Z,4.00
2022-09-28T05:09:08.122Z,4.00
2022-09-28T05:10:08.109Z,4.00
2022-09-28T05:11:08.079Z,4.00
2022-09-28T05:12:08.320Z,8.00
2022-09-28T05:13:08.088Z,4.00
2022-09-28T05:14:08.060Z,8.00
2022-09-28T05:15:08.077Z,8.00
2022-09-28T05:16:07.392Z,8.00
2022-09-28T05:17:07.389Z,12.00
2022-09-28T05:18:07.349Z,16.00
2022-09-28T05:19:08.739Z,16.00
2022-09-28T05:20:07.319Z,20.00
2022-09-28T05:21:07.321Z,24.00
2022-09-28T05:22:08.720Z,28.00
2022-09-28T05:23:07.318Z,28.00
2022-09-28T05:24:08.738Z,36.00
2022-09-28T05:25:07.249Z,40.00
2022-09-28T05:26:07.252Z,48.00
2022-09-28T05:27:07.252Z,52.00
2022-09-28T05:28:07.264Z,60.00
2022-09-28T05:29:07.894Z,56.00
2022-09-28T05:30:07.202Z,56.00
2022-09-28T05:31:07.192Z,52.00
2022-09-28T05:32:07.908Z,52.00
2022-09-28T05:33:08.123Z,52.00
2022-09-28T05:34:07.854Z,52.00
2022-09-28T05:35:07.828Z,56.00
2022-09-28T05:36:07.823Z,52.00
2022-09-28T05:37:07.821Z,56.00
2022-09-28T05:38:07.811Z,52.00
2022-09-28T05:39:07.127Z,52.00
2022-09-28T05:40:08.055Z,56.00
2022-09-28T05:41:07.290Z,60.00
2022-09-28T05:42:07.766Z,64.00
2022-09-28T05:43:07.076Z,64.00
2022-09-28T05:44:07.738Z,60.00
2022-09-28T05:45:07.726Z,56.00
2022-09-28T05:46:07.814Z,52.00
2022-09-28T05:47:07.991Z,48.00
2022-09-28T05:48:08.456Z,48.00
2022-09-28T05:49:06.996Z,48.00
2022-09-28T05:50:07.678Z,44.00
2022-09-28T05:51:07.665Z,48.00
2022-09-28T05:52:07.657Z,52.00
2022-09-28T05:53:06.997Z,60.00
2022-09-28T05:54:07.649Z,80.00
2022-09-28T05:55:07.619Z,100.00
2022-09-28T05:56:06.917Z,112.00
2022-09-28T05:57:07.598Z,120.00
2022-09-28T05:58:06.898Z,128.00
2022-09-28T05:59:07.577Z,140.00
2022-09-28T06:00:06.903Z,148.00
2022-09-28T06:01:07.621Z,156.00
2022-09-28T06:02:07.563Z,180.00
2022-09-28T06:03:09.266Z,200.00
2022-09-28T06:04:07.531Z,220.00
2022-09-28T06:05:07.515Z,260.00
2022-09-28T06:06:07.500Z,296.00
2022-09-28T06:07:07.491Z,308.00
2022-09-28T06:08:07.486Z,292.00
2022-09-28T06:09:07.475Z,288.00
2022-09-28T06:10:06.793Z,296.00
2022-09-28T06:11:06.827Z,304.00
2022-09-28T06:12:07.732Z,308.00
2022-09-28T06:13:06.752Z,308.00
2022-09-28T06:14:07.412Z,300.00
2022-09-28T06:15:07.413Z,312.00
2022-09-28T06:16:07.408Z,316.00
2022-09-28T06:17:07.435Z,344.00
2022-09-28T06:18:07.371Z,364.00
2022-09-28T06:19:08.116Z,380.00
2022-09-28T06:20:07.352Z,408.00
2022-09-28T06:21:07.345Z,432.00
2022-09-28T06:22:06.674Z,444.00
2022-09-28T06:23:07.324Z,472.00
2022-09-28T06:24:06.627Z,492.00
2022-09-28T06:25:07.295Z,492.00
2022-09-28T06:26:07.291Z,480.00
2022-09-28T06:27:07.278Z,468.00
2022-09-28T06:28:07.275Z,456.00
2022-09-28T06:29:07.534Z,476.00
2022-09-28T06:30:06.563Z,472.00
2022-09-28T06:31:08.043Z,464.00
2022-09-28T06:32:06.541Z,484.00
2022-09-28T06:33:07.218Z,516.00
2022-09-28T06:34:07.196Z,504.00
2022-09-28T06:35:07.201Z,540.00
2022-09-28T06:36:07.206Z,552.00
2022-09-28T06:37:07.399Z,536.00
2022-09-28T06:38:07.162Z,568.00
2022-09-28T06:39:07.944Z,664.00
2022-09-28T06:40:07.893Z,796.00
2022-09-28T06:41:06.553Z,952.00
2022-09-28T06:42:06.457Z,1064.00
2022-09-28T06:43:07.362Z,1116.00
2022-09-28T06:44:07.099Z,1164.00
2022-09-28T06:45:07.092Z,1220.00
2022-09-28T06:46:07.133Z,1292.00
2022-09-28T06:47:06.408Z,1328.00
2022-09-28T06:48:07.052Z,1376.00
2022-09-28T06:49:07.041Z,1376.00
2022-09-28T06:50:07.030Z,1412.00
2022-09-28T06:51:07.019Z,1476.00
2022-09-28T06:52:07.003Z,1668.00
2022-09-28T06:53:06.349Z,1788.00
2022-09-28T06:54:06.981Z,1924.00
2022-09-28T06:55:06.980Z,1992.00
2022-09-28T06:56:06.958Z,1972.00
2022-09-28T06:57:06.278Z,1900.00
2022-09-28T06:58:06.263Z,1660.00
2022-09-28T06:59:06.313Z,1496.00
2022-09-28T07:00:07.672Z,1484.00
2022-09-28T07:01:06.959Z,1632.00
2022-09-28T07:02:06.951Z,1660.00
2022-09-28T07:03:07.670Z,1628.00
2022-09-28T07:04:06.191Z,1756.00
2022-09-28T07:05:06.251Z,1832.00
2022-09-28T07:06:07.635Z,2020.00
2022-09-28T07:07:06.142Z,2276.00
2022-09-28T07:08:06.154Z,2468.00
2022-09-28T07:09:19.243Z,2732.00
2022-09-28T07:10:08.616Z,3184.00
2022-09-28T07:11:08.071Z,3404.00
2022-09-28T07:12:06.794Z,4140.00
2022-09-28T07:13:09.556Z,4388.00
2022-09-28T07:14:07.573Z,4260.00
2022-09-28T07:15:06.074Z,3888.00
2022-09-28T07:16:06.193Z,3696.00
2022-09-28T07:17:13.685Z,3192.00
2022-09-28T07:18:08.503Z,2800.00
2022-09-28T07:19:06.718Z,2424.00
2022-09-28T07:20:16.611Z,2164.00
2022-09-28T07:21:09.079Z,1928.00
2022-09-28T07:22:06.695Z,1672.00
2022-09-28T07:23:17.360Z,1548.00
2022-09-28T07:24:06.977Z,1484.00
2022-09-28T07:25:05.970Z,1460.00
2022-09-28T07:26:08.763Z,1468.00
2022-09-28T07:27:07.430Z,1484.00
2022-09-28T07:28:06.617Z,1488.00
2022-09-28T07:29:06.620Z,1520.00
2022-09-28T07:30:06.592Z,1784.00
2022-09-28T07:31:05.929Z,1844.00
2022-09-28T07:32:06.570Z,1968.00
2022-09-28T07:33:05.997Z,1992.00
2022-09-28T07:34:07.309Z,1792.00
2022-09-28T07:35:06.548Z,1860.00
2022-09-28T07:36:06.806Z,1972.00
2022-09-28T07:37:06.519Z,1828.00
2022-09-28T07:38:05.821Z,1732.00
2022-09-28T07:39:05.939Z,1748.00
2022-09-28T07:40:06.494Z,1564.00
2022-09-28T07:41:07.294Z,1332.00
2022-09-28T07:42:06.460Z,1192.00
2022-09-28T07:43:05.761Z,1316.00
2022-09-28T07:44:05.770Z,1640.00
2022-09-28T07:45:05.822Z,2244.00
2022-09-28T07:46:06.746Z,2416.00
2022-09-28T07:47:06.424Z,2292.00
2022-09-28T07:48:06.689Z,2188.00
2022-09-28T07:49:09.797Z,2208.00
2022-09-28T07:50:06.727Z,2672.00
2022-09-28T07:51:06.373Z,2776.00
2022-09-28T07:52:06.352Z,2900.00
2022-09-28T07:53:07.114Z,3388.00
2022-09-28T07:54:06.336Z,2772.00
2022-09-28T07:55:07.259Z,2876.00
2022-09-28T07:56:05.675Z,2860.00
2022-09-28T07:57:06.603Z,2604.00
2022-09-28T07:58:06.285Z,2144.00
2022-09-28T07:59:06.283Z,1592.00
2022-09-28T08:00:06.273Z,1392.00
2022-09-28T08:01:06.290Z,1400.00
2022-09-28T08:02:06.323Z,1488.00
2022-09-28T08:03:06.235Z,1620.00
2022-09-28T08:04:06.389Z,1808.00
2022-09-28T08:05:06.376Z,2020.00
2022-09-28T08:06:06.209Z,2084.00
2022-09-28T08:07:06.355Z,2056.00
2022-09-28T08:08:06.167Z,2008.00
2022-09-28T08:09:06.419Z,1976.00
2022-09-28T08:10:06.159Z,1792.00
2022-09-28T08:11:06.156Z,1840.00
2022-09-28T08:12:06.171Z,1896.00
2022-09-28T08:13:08.586Z,2184.00
2022-09-28T08:14:07.420Z,2312.00
2022-09-28T08:15:06.109Z,2240.00
2022-09-28T08:16:06.099Z,2120.00
2022-09-28T08:17:05.408Z,2144.00
2022-09-28T08:18:05.378Z,2200.00
2022-09-28T08:19:06.061Z,2052.00
2022-09-28T08:20:06.458Z,1964.00
2022-09-28T08:21:06.043Z,2016.00
2022-09-28T08:22:05.348Z,2148.00
2022-09-28T08:23:05.330Z,2304.00
2022-09-28T08:24:06.024Z,2424.00
2022-09-28T08:25:06.273Z,2460.00
2022-09-28T08:26:06.261Z,2364.00
2022-09-28T08:27:06.225Z,2280.00
2022-09-28T08:28:06.232Z,2400.00
2022-09-28T08:29:05.961Z,2504.00
2022-09-28T08:30:06.213Z,2624.00
2022-09-28T08:31:06.220Z,3028.00
2022-09-28T08:32:07.202Z,3128.00
2022-09-28T08:33:05.912Z,3568.00
2022-09-28T08:34:07.152Z,3940.00
2022-09-28T08:35:06.163Z,4216.00
2022-09-28T08:36:06.042Z,3908.00
2022-09-28T08:37:06.131Z,3852.00
2022-09-28T08:38:06.168Z,4568.00
2022-09-28T08:39:06.075Z,4872.00
2022-09-28T08:40:05.840Z,4980.00
2022-09-28T08:41:06.094Z,5312.00
2022-09-28T08:42:06.575Z,5344.00
2022-09-28T08:43:05.812Z,5360.00
2022-09-28T08:44:05.978Z,5216.00
2022-09-28T08:47:18.723Z,8672.00
2022-09-28T08:48:17.984Z,6564.00
2022-09-28T08:49:26.161Z,5796.00
2022-09-28T08:50:19.642Z,6140.00
2022-09-28T08:51:17.951Z,7672.00
2022-09-28T08:52:17.939Z,5368.00
2022-09-28T08:53:17.932Z,4552.00
2022-09-28T08:54:17.982Z,3904.00
2022-09-28T08:55:17.904Z,3624.00
2022-09-28T08:56:17.903Z,3336.00
2022-09-28T08:57:17.884Z,3204.00
2022-09-28T08:58:17.184Z,3056.00
2022-09-28T08:59:17.865Z,2764.00
2022-09-28T09:00:17.858Z,2452.00
2022-09-28T09:01:17.902Z,2492.00
2022-09-28T09:02:17.194Z,2636.00
2022-09-28T09:03:17.815Z,2960.00
2022-09-28T09:04:17.174Z,3328.00
2022-09-28T09:05:17.129Z,3636.00
2022-09-28T09:06:18.671Z,3764.00
2022-09-28T09:07:18.681Z,3924.00
2022-09-28T09:08:18.567Z,4616.00
2022-09-28T09:09:18.514Z,4740.00
2022-09-28T09:10:17.775Z,5212.00
2022-09-28T09:11:17.743Z,5224.00
2022-09-28T09:12:17.730Z,5372.00
2022-09-28T09:13:17.134Z,5000.00
2022-09-28T09:14:17.753Z,5124.00
2022-09-28T09:15:17.690Z,5456.00
2022-09-28T09:16:17.066Z,5748.00
2022-09-28T09:17:17.013Z,5812.00
2022-09-28T09:18:20.056Z,6172.00
2022-09-28T09:19:18.419Z,5776.00
2022-09-28T09:20:18.381Z,5816.00
2022-09-28T09:21:16.921Z,5692.00
2022-09-28T09:22:17.621Z,5092.00
2022-09-28T09:23:16.954Z,4212.00
2022-09-28T09:24:16.903Z,3700.00
2022-09-28T09:25:17.580Z,3644.00
2022-09-28T09:26:21.336Z,3936.00
2022-09-28T09:27:18.561Z,3724.00
2022-09-28T09:28:18.301Z,3468.00
2022-09-28T09:29:17.545Z,3616.00
2022-09-28T09:30:19.822Z,3360.00
2022-09-28T09:31:20.703Z,2748.00
2022-09-28T09:32:19.262Z,2428.00
2022-09-28T09:33:17.510Z,2588.00
2022-09-28T09:34:17.587Z,3076.00
2022-09-28T09:35:17.089Z,3816.00
2022-09-28T09:36:16.784Z,4416.00
2022-09-28T09:37:16.784Z,4668.00
2022-09-28T09:38:17.444Z,4636.00
2022-09-28T09:39:17.440Z,4164.00
2022-09-28T09:40:17.485Z,3796.00
2022-09-28T09:41:16.727Z,3552.00
2022-09-28T09:42:17.396Z,3564.00
2022-09-28T09:43:16.715Z,3528.00
2022-09-28T09:44:17.495Z,3644.00
2022-09-28T09:45:17.368Z,3668.00
2022-09-28T09:46:16.784Z,3468.00
2022-09-28T09:47:16.671Z,3480.00
2022-09-28T09:48:16.648Z,3660.00
2022-09-28T09:49:16.666Z,3900.00
2022-09-28T09:50:18.143Z,4216.00
2022-09-28T09:51:16.617Z,4084.00
2022-09-28T09:52:17.299Z,3784.00
2022-09-28T09:53:16.602Z,3560.00
2022-09-28T09:54:16.598Z,4760.00
2022-09-28T09:55:16.619Z,5092.00
2022-09-28T09:56:16.588Z,6088.00
2022-09-28T09:57:16.570Z,5448.00
2022-09-28T09:58:16.557Z,5004.00
2022-09-28T09:59:16.600Z,4524.00
2022-09-28T10:00:17.203Z,4248.00
2022-09-28T10:01:18.579Z,4292.00
2022-09-28T10:02:17.487Z,4392.00
2022-09-28T10:03:16.478Z,4312.00
2022-09-28T10:04:17.172Z,4248.00
2022-09-28T10:05:16.491Z,4676.00
2022-09-28T10:06:17.152Z,4768.00
2022-09-28T10:07:16.507Z,4440.00
2022-09-28T10:08:17.122Z,4040.00
2022-09-28T10:09:17.204Z,3564.00
2022-09-28T10:10:16.407Z,3628.00
2022-09-28T10:11:16.400Z,3688.00
2022-09-28T10:12:16.413Z,3996.00
2022-09-28T10:13:17.349Z,3600.00
2022-09-28T10:14:17.804Z,3396.00
2022-09-28T10:15:16.373Z,3320.00
2022-09-28T10:16:16.395Z,3264.00
2022-09-28T10:17:16.365Z,3476.00
2022-09-28T10:18:16.325Z,3588.00
2022-09-28T10:19:16.375Z,3560.00
2022-09-28T10:20:17.004Z,3652.00
2022-09-28T10:21:16.991Z,3668.00
2022-09-28T10:22:16.295Z,3704.00
2022-09-28T10:23:16.956Z,3700.00
2022-09-28T10:24:16.946Z,3716.00
2022-09-28T10:25:16.926Z,3916.00
2022-09-28T10:26:18.716Z,3724.00
2022-09-28T10:27:16.916Z,3704.00
2022-09-28T10:28:16.217Z,3724.00
2022-09-28T10:29:16.359Z,3948.00
2022-09-28T10:30:16.895Z,4108.00
2022-09-28T10:31:16.887Z,4220.00
2022-09-28T10:32:16.866Z,4704.00
2022-09-28T10:33:16.185Z,4548.00
2022-09-28T10:34:16.873Z,4868.00
2022-09-28T10:35:16.141Z,4720.00
2022-09-28T10:36:16.153Z,4992.00
2022-09-28T10:37:16.150Z,5052.00
2022-09-28T10:38:16.114Z,4756.00
2022-09-28T10:39:16.788Z,4716.00
2022-09-28T10:40:16.784Z,4592.00
2022-09-28T10:41:16.081Z,4344.00
2022-09-28T10:42:16.752Z,4140.00
2022-09-28T10:43:16.150Z,4348.00
2022-09-28T10:44:16.086Z,4104.00
2022-09-28T10:45:16.056Z,4020.00
2022-09-28T10:46:16.123Z,3656.00
2022-09-28T10:47:16.701Z,4152.00
2022-09-28T10:48:16.942Z,5272.00
2022-09-28T10:49:16.975Z,5368.00
2022-09-28T10:50:17.480Z,4744.00
2022-09-28T10:51:16.914Z,4028.00
2022-09-28T10:52:17.424Z,4500.00
2022-09-28T10:53:15.975Z,4016.00
2022-09-28T10:54:16.647Z,3444.00
2022-09-28T10:55:18.003Z,3336.00
2022-09-28T10:56:15.914Z,3080.00
2022-09-28T10:57:17.863Z,2980.00
2022-09-28T10:58:15.908Z,2868.00
2022-09-28T10:59:15.905Z,3024.00
2022-09-28T11:00:16.842Z,2944.00
2022-09-28T11:01:16.592Z,2596.00
2022-09-28T11:02:16.847Z,2500.00
2022-09-28T11:03:16.529Z,2512.00
2022-09-28T11:04:17.831Z,2520.00
2022-09-28T11:05:15.856Z,2852.00
2022-09-28T11:06:17.758Z,3136.00
2022-09-28T11:07:17.349Z,3368.00
2022-09-28T11:08:16.470Z,3616.00
2022-09-28T11:09:16.737Z,3688.00
2022-09-28T11:10:16.502Z,4148.00
2022-09-28T11:11:15.797Z,4484.00
2022-09-28T11:12:16.445Z,4564.00
2022-09-28T11:13:16.440Z,4324.00
2022-09-28T11:14:16.554Z,4656.00
2022-09-28T11:15:16.402Z,5056.00
2022-09-28T11:16:17.712Z,5256.00
2022-09-28T11:17:16.556Z,5220.00
2022-09-28T11:18:16.372Z,4592.00
2022-09-28T11:19:16.368Z,3744.00
2022-09-28T11:20:17.266Z,3460.00
2022-09-28T11:21:15.652Z,3448.00
2022-09-28T11:22:16.332Z,3300.00
2022-09-28T11:23:16.402Z,3188.00
2022-09-28T11:24:19.050Z,3224.00
2022-09-28T11:25:15.634Z,3004.00
2022-09-28T11:26:18.583Z,2960.00
2022-09-28T11:27:15.621Z,3192.00
2022-09-28T11:28:15.565Z,3556.00
2022-09-28T11:29:16.337Z,3780.00
2022-09-28T11:30:15.635Z,3972.00
2022-09-28T11:31:16.297Z,4752.00
2022-09-28T11:32:16.257Z,4908.00
2022-09-28T11:33:16.210Z,5212.00
2022-09-28T11:34:16.484Z,5360.00
2022-09-28T11:35:16.186Z,5612.00
2022-09-28T11:36:16.170Z,4564.00
2022-09-28T11:37:16.149Z,4076.00
2022-09-28T11:38:15.464Z,3600.00
2022-09-28T11:39:16.186Z,3564.00
2022-09-28T11:40:16.310Z,3672.00
2022-09-28T11:41:17.411Z,3572.00
2022-09-28T11:42:16.468Z,3728.00
2022-09-28T11:43:17.405Z,3648.00
2022-09-28T11:44:16.827Z,3772.00
2022-09-28T11:45:16.087Z,3864.00
2022-09-28T11:46:16.104Z,3900.00
2022-09-28T11:47:16.050Z,4040.00
2022-09-28T11:48:16.290Z,3604.00
2022-09-28T11:49:16.211Z,3392.00
2022-09-28T11:50:20.047Z,3436.00
2022-09-28T11:51:17.314Z,3540.00
2022-09-28T11:52:16.008Z,3540.00
2022-09-28T11:53:16.038Z,3568.00
2022-09-28T11:54:16.018Z,3368.00
2022-09-28T11:55:16.042Z,3268.00
2022-09-28T11:56:16.147Z,3580.00
2022-09-28T11:57:16.600Z,3788.00
2022-09-28T11:58:15.947Z,3780.00
2022-09-28T11:59:15.246Z,3628.00
2022-09-28T12:00:16.184Z,3492.00
2022-09-28T12:01:18.946Z,3572.00
2022-09-28T12:02:16.202Z,3768.00
2022-09-28T12:03:15.369Z,3404.00
2022-09-28T12:04:16.157Z,3480.00
2022-09-28T12:05:20.524Z,3184.00
2022-09-28T12:06:16.199Z,3232.00
2022-09-28T12:07:15.839Z,3628.00
2022-09-28T12:08:15.842Z,3940.00
2022-09-28T12:09:15.875Z,4012.00
2022-09-28T12:10:15.138Z,3700.00
2022-09-28T12:11:16.537Z,4324.00
2022-09-28T12:12:15.843Z,4468.00
2022-09-28T12:13:15.107Z,4284.00
2022-09-28T12:14:15.107Z,3760.00
2022-09-28T12:15:15.091Z,3844.00
2022-09-28T12:17:20.004Z,3800.00
2022-09-28T12:18:15.828Z,3888.00
2022-09-28T12:19:15.733Z,4060.00
2022-09-28T12:20:16.510Z,4216.00
2022-09-28T12:21:15.691Z,4468.00
2022-09-28T12:22:15.687Z,4544.00
2022-09-28T12:23:15.660Z,4680.00
2022-09-28T12:24:15.662Z,4684.00
2022-09-28T12:25:15.912Z,4604.00
2022-09-28T12:26:15.639Z,4556.00
2022-09-28T12:27:14.971Z,4644.00
2022-09-28T12:28:15.621Z,4468.00
2022-09-28T12:29:15.651Z,4168.00
2022-09-28T12:30:15.593Z,3928.00
2022-09-28T12:31:17.000Z,3952.00
2022-09-28T12:32:14.881Z,3880.00
2022-09-28T12:33:15.584Z,3840.00
2022-09-28T12:34:14.853Z,4080.00
2022-09-28T12:35:15.845Z,3944.00
2022-09-28T12:36:14.848Z,3464.00
2022-09-28T12:37:15.145Z,3184.00
2022-09-28T12:38:16.225Z,3036.00
2022-09-28T12:39:40.893Z,2984.00
2022-09-28T12:40:17.302Z,2840.00
2022-09-28T12:41:16.216Z,2748.00